createdAt,value
2018-12-29T00:01:15.644Z,51.37
2018-12-29T00:03:46.445Z,56.80
2018-12-29T00:06:16.858Z,54.33
2018-12-29T00:08:47.308Z,58.30
2018-12-29T00:11:17.617Z,52.97
2018-12-29T00:13:48.475Z,56.33
2018-12-29T00:16:18.780Z,45.87
2018-12-29T00:18:50.596Z,49.07
2018-12-29T00:21:21.054Z,52.73
2018-12-29T00:23:51.659Z,55.43
2018-12-29T00:26:21.984Z,52.97
2018-12-29T00:28:52.491Z,50.17
2018-12-29T00:31:22.983Z,50.77
2018-12-29T00:33:53.464Z,49.33
2018-12-29T00:36:24.953Z,56.50
2018-12-29T00:38:55.307Z,54.23
2018-12-29T00:41:25.828Z,56.53
2018-12-29T00:43:56.483Z,52.23
2018-12-29T00:46:27.345Z,56.27
2018-12-29T00:48:58.185Z,51.00
2018-12-29T00:51:28.991Z,53.97
2018-12-29T00:53:59.464Z,52.07
2018-12-29T00:56:29.812Z,51.77
2018-12-29T00:59:00.303Z,56.57
2018-12-29T01:01:30.681Z,58.03
2018-12-29T01:04:00.977Z,58.80
2018-12-29T01:06:31.464Z,54.27
2018-12-29T01:09:02.717Z,65.33
2018-12-29T01:11:33.197Z,58.77
2018-12-29T01:14:03.631Z,59.90
2018-12-29T01:16:34.178Z,59.43
2018-12-29T01:19:05.363Z,60.77
2018-12-29T01:21:35.822Z,53.87
2018-12-29T01:24:06.784Z,54.67
2018-12-29T01:26:37.696Z,64.00
2018-12-29T01:29:08.287Z,55.00
2018-12-29T01:31:38.971Z,55.77
2018-12-29T01:34:09.364Z,60.17
2018-12-29T01:36:40.146Z,56.37
2018-12-29T01:39:11.010Z,56.03
2018-12-29T01:41:41.690Z,57.63
2018-12-29T01:44:12.171Z,60.20
2018-12-29T01:46:42.755Z,63.83
2018-12-29T01:49:13.619Z,64.37
2018-12-29T01:51:44.036Z,59.73
2018-12-29T01:54:14.508Z,59.10
2018-12-29T01:56:45.054Z,61.97
2018-12-29T01:59:15.409Z,57.93
2018-12-29T02:01:46.759Z,57.83
2018-12-29T02:04:17.076Z,57.40
2018-12-29T02:06:47.890Z,60.67
2018-12-29T02:09:18.321Z,59.60
2018-12-29T02:11:48.765Z,61.50
2018-12-29T02:14:19.683Z,62.37
2018-12-29T02:16:50.663Z,57.33
2018-12-29T02:19:21.015Z,57.60
2018-12-29T02:21:51.774Z,60.43
2018-12-29T02:24:22.148Z,54.40
2018-12-29T02:26:52.656Z,55.93
2018-12-29T02:29:23.648Z,59.73
2018-12-29T02:31:54.014Z,56.73
2018-12-29T02:34:24.360Z,56.07
2018-12-29T02:36:54.898Z,60.40
2018-12-29T02:39:25.411Z,57.50
2018-12-29T02:41:55.656Z,59.07
2018-12-29T02:44:26.410Z,59.43
2018-12-29T02:46:56.942Z,60.43
2018-12-29T02:49:27.464Z,57.03
2018-12-29T02:51:57.886Z,60.47
2018-12-29T02:54:28.536Z,60.93
2018-12-29T02:56:58.931Z,61.57
2018-12-29T02:59:29.497Z,59.93
2018-12-29T03:01:59.989Z,58.57
2018-12-29T03:04:30.323Z,61.63
2018-12-29T03:07:00.706Z,59.57
2018-12-29T03:09:31.079Z,62.63
2018-12-29T03:12:01.958Z,67.33
2018-12-29T03:14:32.234Z,59.83
2018-12-29T03:17:02.998Z,64.57
2018-12-29T03:19:33.590Z,60.10
2018-12-29T03:22:04.455Z,64.50
2018-12-29T03:24:35.140Z,54.77
2018-12-29T03:27:05.592Z,59.07
2018-12-29T03:29:35.955Z,65.40
2018-12-29T03:32:06.397Z,56.73
2018-12-29T03:34:36.660Z,58.73
2018-12-29T03:37:06.936Z,57.97
2018-12-29T03:39:37.688Z,58.83
2018-12-29T03:42:08.662Z,59.20
2018-12-29T03:44:39.079Z,62.87
2018-12-29T03:47:09.356Z,58.10
2018-12-29T03:49:39.990Z,61.90
2018-12-29T03:52:10.614Z,52.87
2018-12-29T03:54:41.296Z,61.07
2018-12-29T03:57:11.637Z,60.30
2018-12-29T03:59:42.049Z,59.57
2018-12-29T04:02:12.269Z,62.43
2018-12-29T04:04:42.500Z,59.53
2018-12-29T04:07:12.932Z,58.10
2018-12-29T04:09:43.263Z,58.87
2018-12-29T04:12:27.846Z,62.63
2018-12-29T04:14:58.239Z,60.30
2018-12-29T04:17:29.003Z,61.90
2018-12-29T04:19:59.293Z,57.67
2018-12-29T04:22:30.512Z,56.67
2018-12-29T04:25:00.755Z,57.53
2018-12-29T04:27:31.845Z,63.37
2018-12-29T04:30:02.183Z,55.80
2018-12-29T04:32:32.435Z,64.53
2018-12-29T04:35:02.871Z,57.30
2018-12-29T04:37:33.835Z,59.53
2018-12-29T04:40:04.771Z,52.70
2018-12-29T04:42:35.060Z,56.60
2018-12-29T04:45:05.483Z,56.73
2018-12-29T04:47:35.830Z,57.43
2018-12-29T04:50:06.922Z,52.53
2018-12-29T04:52:37.216Z,53.30
2018-12-29T04:55:07.921Z,53.83
2018-12-29T04:57:38.161Z,56.60
2018-12-29T05:00:09.758Z,61.00
2018-12-29T05:02:40.105Z,59.47
2018-12-29T05:05:10.657Z,56.33
2018-12-29T05:07:41.816Z,55.17
2018-12-29T05:10:12.515Z,59.93
2018-12-29T05:12:42.921Z,62.20
2018-12-29T05:15:13.219Z,57.77
2018-12-29T05:17:43.588Z,66.70
2018-12-29T05:20:14.833Z,56.70
2018-12-29T05:22:45.555Z,54.37
2018-12-29T05:25:15.942Z,53.30
2018-12-29T05:27:46.314Z,59.33
2018-12-29T05:30:16.524Z,50.10
2018-12-29T05:32:46.974Z,52.97
2018-12-29T05:35:17.215Z,55.20
2018-12-29T05:37:47.673Z,50.33
2018-12-29T05:40:18.214Z,53.80
2018-12-29T05:42:48.605Z,54.57
2018-12-29T05:45:19.256Z,49.53
2018-12-29T05:47:49.839Z,49.13
2018-12-29T05:50:20.183Z,51.30
2018-12-29T05:52:50.426Z,52.03
2018-12-29T05:55:20.941Z,48.93
2018-12-29T05:57:51.344Z,48.90
2018-12-29T06:00:21.661Z,47.40
2018-12-29T06:02:52.142Z,50.67
2018-12-29T06:05:22.671Z,54.23
2018-12-29T06:07:52.992Z,51.73
2018-12-29T06:10:23.423Z,46.57
2018-12-29T06:12:53.939Z,50.43
2018-12-29T06:15:24.200Z,47.23
2018-12-29T06:17:54.546Z,50.43
2018-12-29T06:20:25.026Z,50.87
2018-12-29T06:22:55.557Z,45.63
2018-12-29T06:25:26.225Z,46.67
2018-12-29T06:27:57.297Z,49.17
2018-12-29T06:30:27.884Z,45.77
2018-12-29T06:32:58.385Z,47.00
2018-12-29T06:35:28.887Z,54.27
2018-12-29T06:37:59.170Z,54.00
2018-12-29T06:40:29.927Z,54.60
2018-12-29T06:43:00.174Z,52.67
2018-12-29T06:45:30.488Z,49.73
2018-12-29T06:48:01.341Z,46.53
2018-12-29T06:50:31.938Z,46.60
2018-12-29T06:53:02.198Z,51.60
2018-12-29T06:55:34.900Z,45.07
2018-12-29T06:58:05.230Z,46.47
2018-12-29T07:00:35.651Z,44.30
2018-12-29T07:03:06.379Z,47.60
2018-12-29T07:05:36.962Z,45.17
2018-12-29T07:08:07.545Z,43.17
2018-12-29T07:10:38.035Z,48.00
2018-12-29T07:13:08.851Z,50.13
2018-12-29T07:15:39.473Z,47.27
2018-12-29T07:18:10.392Z,42.87
2018-12-29T07:20:41.233Z,50.37
2018-12-29T07:23:11.804Z,46.47
2018-12-29T07:27:06.175Z,48.67
2018-12-29T07:29:38.303Z,46.43
2018-12-29T07:32:08.774Z,53.00
2018-12-29T07:34:39.391Z,51.07
2018-12-29T07:37:09.986Z,55.03
2018-12-29T07:39:40.685Z,52.43
2018-12-29T07:42:11.061Z,51.27
2018-12-29T07:45:21.351Z,53.77
2018-12-29T07:47:52.035Z,50.87
2018-12-29T07:50:22.953Z,49.30
2018-12-29T07:52:53.478Z,54.77
2018-12-29T07:55:23.904Z,56.30
2018-12-29T07:57:54.168Z,56.47
2018-12-29T08:00:24.568Z,61.17
2018-12-29T08:02:55.095Z,53.60
2018-12-29T08:05:25.549Z,56.40
2018-12-29T08:07:57.322Z,54.20
2018-12-29T08:10:28.342Z,52.97
2018-12-29T08:12:59.077Z,56.07
2018-12-29T08:15:29.538Z,51.83
2018-12-29T08:17:59.980Z,62.17
2018-12-29T08:20:30.465Z,61.93
2018-12-29T08:23:00.809Z,58.60
2018-12-29T08:25:31.898Z,53.53
2018-12-29T08:28:02.331Z,52.40
2018-12-29T08:30:32.617Z,54.40
2018-12-29T08:33:03.273Z,54.37
2018-12-29T08:35:34.715Z,50.07
2018-12-29T08:38:05.054Z,52.90
2018-12-29T08:40:35.547Z,52.50
2018-12-29T08:43:06.039Z,51.47
2018-12-29T08:45:36.520Z,57.07
2018-12-29T08:48:07.315Z,53.67
2018-12-29T08:50:37.978Z,55.20
2018-12-29T08:53:08.739Z,54.60
2018-12-29T08:55:42.122Z,55.90
2018-12-29T08:58:12.618Z,54.63
2018-12-29T09:01:02.568Z,59.27
2018-12-29T09:03:33.360Z,51.03
2018-12-29T09:06:03.800Z,55.37
2018-12-29T09:08:34.509Z,54.73
2018-12-29T09:11:05.433Z,50.00
2018-12-29T09:13:35.978Z,50.47
2018-12-29T09:16:06.589Z,51.77
2018-12-29T09:18:36.857Z,47.13
2018-12-29T09:21:07.442Z,53.93
2018-12-29T09:23:38.146Z,54.30
2018-12-29T09:26:09.139Z,48.33
2018-12-29T09:28:40.017Z,51.47
2018-12-29T09:31:10.750Z,52.23
2018-12-29T09:33:41.348Z,50.13
2018-12-29T09:36:11.883Z,49.10
2018-12-29T09:38:42.325Z,50.83
2018-12-29T09:41:13.139Z,49.90
2018-12-29T09:43:43.674Z,47.20
2018-12-29T09:46:14.119Z,46.33
2018-12-29T09:48:44.721Z,47.93
2018-12-29T09:51:15.178Z,49.17
2018-12-29T09:53:45.419Z,47.17
2018-12-29T09:56:16.163Z,48.47
2018-12-29T09:58:46.510Z,50.23
2018-12-29T10:01:17.262Z,48.27
2018-12-29T10:03:48.086Z,51.50
2018-12-29T10:06:18.603Z,53.50
2018-12-29T10:08:49.155Z,53.13
2018-12-29T10:11:19.574Z,51.60
2018-12-29T10:13:50.094Z,50.67
2018-12-29T10:16:20.698Z,46.83
2018-12-29T10:18:51.458Z,48.03
2018-12-29T10:21:21.970Z,51.57
2018-12-29T10:23:52.344Z,48.60
2018-12-29T10:26:23.139Z,53.47
2018-12-29T10:28:53.534Z,54.97
2018-12-29T10:31:23.872Z,53.93
2018-12-29T10:33:55.406Z,48.17
2018-12-29T10:36:25.763Z,48.17
2018-12-29T10:38:56.217Z,49.23
2018-12-29T10:41:26.606Z,49.13
2018-12-29T10:43:57.055Z,50.93
2018-12-29T10:46:27.753Z,53.87
2018-12-29T10:48:58.144Z,48.07
2018-12-29T10:51:28.414Z,51.27
2018-12-29T10:53:58.937Z,53.07
2018-12-29T10:56:29.601Z,48.73
2018-12-29T10:58:59.908Z,48.00
2018-12-29T11:01:30.291Z,48.77
2018-12-29T11:04:00.897Z,55.20
2018-12-29T11:06:31.107Z,47.73
2018-12-29T11:09:01.712Z,47.77
2018-12-29T11:11:32.340Z,51.47
2018-12-29T11:14:02.692Z,55.67
2018-12-29T11:16:35.101Z,54.83
2018-12-29T11:19:05.711Z,50.10
2018-12-29T11:21:36.239Z,47.80
2018-12-29T11:24:07.293Z,51.67
2018-12-29T11:26:37.625Z,49.40
2018-12-29T11:29:08.340Z,47.80
2018-12-29T11:31:38.703Z,49.27
2018-12-29T11:34:09.364Z,54.97
2018-12-29T11:36:40.099Z,52.77
2018-12-29T11:39:10.319Z,53.17
2018-12-29T11:41:41.213Z,53.27
2018-12-29T11:44:11.504Z,50.90
2018-12-29T11:46:41.804Z,55.80
2018-12-29T11:49:18.038Z,51.70
2018-12-29T11:51:44.610Z,52.17
2018-12-29T11:54:14.904Z,54.77
2018-12-29T11:56:45.281Z,49.83
2018-12-29T11:59:15.663Z,54.67
2018-12-29T12:01:46.230Z,57.77
2018-12-29T12:04:16.649Z,52.60
2018-12-29T12:06:47.059Z,50.90
2018-12-29T12:09:17.805Z,48.70
2018-12-29T12:11:48.188Z,53.10
2018-12-29T12:14:19.876Z,47.07
2018-12-29T12:16:50.175Z,58.60
2018-12-29T12:19:21.133Z,51.50
2018-12-29T12:21:51.518Z,53.80
2018-12-29T12:24:21.936Z,54.83
2018-12-29T12:26:52.268Z,53.33
2018-12-29T12:29:22.669Z,53.23
2018-12-29T12:31:52.852Z,54.57
2018-12-29T12:34:23.329Z,56.73
2018-12-29T12:36:53.638Z,51.80
2018-12-29T12:39:24.140Z,55.10
2018-12-29T12:41:54.581Z,55.60
2018-12-29T12:44:25.017Z,51.43
2018-12-29T12:46:55.302Z,55.33
2018-12-29T12:49:25.940Z,51.17
2018-12-29T12:51:56.296Z,56.47
2018-12-29T12:54:26.786Z,50.10
2018-12-29T12:56:57.040Z,52.93
2018-12-29T12:59:27.644Z,55.53
2018-12-29T13:01:58.142Z,53.53
2018-12-29T13:04:28.569Z,51.53
2018-12-29T13:06:59.348Z,54.57
2018-12-29T13:09:29.595Z,51.57
2018-12-29T13:12:00.084Z,57.90
2018-12-29T13:14:30.359Z,55.27
2018-12-29T13:17:00.745Z,55.17
2018-12-29T13:19:31.053Z,54.90
2018-12-29T13:22:01.283Z,53.70
2018-12-29T13:24:31.701Z,53.53
2018-12-29T13:27:02.031Z,53.93
2018-12-29T13:29:32.630Z,52.50
2018-12-29T13:32:03.083Z,52.63
2018-12-29T13:34:33.455Z,55.17
2018-12-29T13:37:03.773Z,49.10
2018-12-29T13:39:34.429Z,57.43
2018-12-29T13:42:04.712Z,50.67
2018-12-29T13:44:35.061Z,55.20
2018-12-29T13:47:05.779Z,49.33
2018-12-29T13:49:36.064Z,52.60
2018-12-29T13:52:06.449Z,52.17
2018-12-29T13:54:36.671Z,47.77
2018-12-29T13:57:06.937Z,53.43
2018-12-29T13:59:37.301Z,55.73
2018-12-29T14:02:08.028Z,56.17
2018-12-29T14:04:38.388Z,56.77
2018-12-29T14:07:08.607Z,55.07
2018-12-29T14:09:38.839Z,56.40
2018-12-29T14:12:09.148Z,55.20
2018-12-29T14:14:39.465Z,56.80
2018-12-29T14:17:09.823Z,55.67
2018-12-29T14:19:40.279Z,53.40
2018-12-29T14:22:10.815Z,58.83
2018-12-29T14:24:41.424Z,49.80
2018-12-29T14:27:11.895Z,51.63
2018-12-29T14:29:42.229Z,54.47
2018-12-29T14:32:12.583Z,56.53
2018-12-29T14:34:42.822Z,60.87
2018-12-29T14:37:13.063Z,55.47
2018-12-29T14:39:43.316Z,57.00
2018-12-29T14:42:13.948Z,57.27
2018-12-29T14:44:44.175Z,55.43
2018-12-29T14:47:14.576Z,56.63
2018-12-29T14:49:44.960Z,57.20
2018-12-29T14:52:15.282Z,54.47
2018-12-29T14:54:45.759Z,51.47
2018-12-29T14:57:36.048Z,52.67
2018-12-29T15:00:06.701Z,56.07
2018-12-29T15:02:37.013Z,55.10
2018-12-29T15:05:07.451Z,54.47
2018-12-29T15:07:38.359Z,52.53
2018-12-29T15:10:09.018Z,53.50
2018-12-29T15:12:39.307Z,52.73
2018-12-29T15:15:09.985Z,60.10
2018-12-29T15:17:40.625Z,50.90
2018-12-29T15:20:11.340Z,50.13
2018-12-29T15:22:41.834Z,53.60
2018-12-29T15:25:12.361Z,58.13
2018-12-29T15:27:43.548Z,56.47
2018-12-29T15:30:13.919Z,55.53
2018-12-29T15:32:44.384Z,51.20
2018-12-29T15:35:15.244Z,53.63
2018-12-29T15:37:45.417Z,49.83
2018-12-29T15:40:16.088Z,50.53
2018-12-29T15:42:46.525Z,51.13
2018-12-29T15:45:16.913Z,48.43
2018-12-29T15:47:47.546Z,48.67
2018-12-29T15:50:18.180Z,53.63
2018-12-29T15:52:48.970Z,50.97
2018-12-29T15:55:19.402Z,54.17
2018-12-29T15:57:49.942Z,51.10
2018-12-29T16:00:20.543Z,48.93
2018-12-29T16:02:51.347Z,51.23
2018-12-29T16:05:21.554Z,46.43
2018-12-29T16:07:52.193Z,53.90
2018-12-29T16:10:22.471Z,54.87
2018-12-29T16:12:52.931Z,58.03
2018-12-29T16:15:23.681Z,57.70
2018-12-29T16:17:54.036Z,54.03
2018-12-29T16:20:24.266Z,55.30
2018-12-29T16:22:54.845Z,52.80
2018-12-29T16:25:25.367Z,52.53
2018-12-29T16:27:55.690Z,55.07
2018-12-29T16:30:26.391Z,49.07
2018-12-29T16:32:57.087Z,52.47
2018-12-29T16:35:27.368Z,49.57
2018-12-29T16:37:58.095Z,47.23
2018-12-29T16:40:28.467Z,48.60
2018-12-29T16:42:58.830Z,44.37
2018-12-29T16:45:30.162Z,50.27
2018-12-29T16:48:00.624Z,50.63
2018-12-29T16:50:31.311Z,48.23
2018-12-29T16:53:01.689Z,42.97
2018-12-29T16:55:32.061Z,46.77
2018-12-29T16:58:02.568Z,49.37
2018-12-29T17:00:32.827Z,46.80
2018-12-29T17:03:03.141Z,48.67
2018-12-29T17:05:33.432Z,49.07
2018-12-29T17:08:06.744Z,48.03
2018-12-29T17:10:37.053Z,52.13
2018-12-29T17:13:07.306Z,55.43
2018-12-29T17:15:38.270Z,50.93
2018-12-29T17:18:10.403Z,55.20
2018-12-29T17:20:41.097Z,51.50
2018-12-29T17:23:12.501Z,51.73
2018-12-29T17:25:43.338Z,53.23
2018-12-29T17:28:13.604Z,45.30
2018-12-29T17:30:44.592Z,43.60
2018-12-29T17:33:14.986Z,43.33
2018-12-29T17:35:45.324Z,47.97
2018-12-29T17:38:15.947Z,44.60
2018-12-29T17:40:46.194Z,45.97
2018-12-29T17:43:16.644Z,48.40
2018-12-29T17:45:46.848Z,49.70
2018-12-29T17:48:17.160Z,48.10
2018-12-29T17:50:47.488Z,45.07
2018-12-29T17:53:18.236Z,44.93
2018-12-29T17:55:48.489Z,44.27
2018-12-29T17:58:18.901Z,47.67
2018-12-29T18:00:49.601Z,46.17
2018-12-29T18:03:19.924Z,48.00
2018-12-29T18:05:50.607Z,53.30
2018-12-29T18:08:20.775Z,55.43
2018-12-29T18:10:51.303Z,46.60
2018-12-29T18:13:21.991Z,48.83
2018-12-29T18:15:52.495Z,48.90
2018-12-29T18:18:22.945Z,47.30
2018-12-29T18:20:53.245Z,47.70
2018-12-29T18:23:23.618Z,45.53
2018-12-29T18:25:53.802Z,44.83
2018-12-29T18:28:24.153Z,46.27
2018-12-29T18:30:54.531Z,47.83
2018-12-29T18:33:24.768Z,48.60
2018-12-29T18:35:55.379Z,47.60
2018-12-29T18:38:26.083Z,44.60
2018-12-29T18:40:56.299Z,43.00
2018-12-29T18:43:26.652Z,45.50
2018-12-29T18:45:57.024Z,45.57
2018-12-29T18:48:27.330Z,46.53
2018-12-29T18:50:57.937Z,46.73
2018-12-29T18:53:28.567Z,48.73
2018-12-29T18:55:58.935Z,54.17
2018-12-29T18:58:29.184Z,52.40
2018-12-29T19:00:59.674Z,52.23
2018-12-29T19:03:29.963Z,54.10
2018-12-29T19:06:01.106Z,50.73
2018-12-29T19:08:31.399Z,54.03
2018-12-29T19:11:01.867Z,52.33
2018-12-29T19:13:32.197Z,47.77
2018-12-29T19:16:02.776Z,47.23
2018-12-29T19:18:33.216Z,46.17
2018-12-29T19:21:03.399Z,53.07
2018-12-29T19:23:34.161Z,44.73
2018-12-29T19:26:05.963Z,46.50
2018-12-29T19:28:36.628Z,46.00
2018-12-29T19:31:07.357Z,45.53
2018-12-29T19:33:38.402Z,49.83
2018-12-29T19:36:08.995Z,51.50
2018-12-29T19:38:39.320Z,51.70
2018-12-29T19:41:10.193Z,47.70
2018-12-29T19:43:40.943Z,49.83
2018-12-29T19:46:11.813Z,49.10
2018-12-29T19:48:42.257Z,51.17
2018-12-29T19:51:12.620Z,48.40
2018-12-29T19:53:43.197Z,49.77
2018-12-29T19:56:13.557Z,46.27
2018-12-29T19:58:43.907Z,47.13
2018-12-29T20:01:14.373Z,46.83
2018-12-29T20:03:44.729Z,46.40
2018-12-29T20:06:15.398Z,52.90
2018-12-29T20:08:45.758Z,60.20
2018-12-29T20:11:16.082Z,56.33
2018-12-29T20:13:46.538Z,56.63
2018-12-29T20:16:16.787Z,57.53
2018-12-29T20:18:47.488Z,58.73
2018-12-29T20:21:17.730Z,56.93
2018-12-29T20:23:48.043Z,58.00
2018-12-29T20:26:18.631Z,64.33
2018-12-29T20:28:49.246Z,63.70
2018-12-29T20:31:19.762Z,62.03
2018-12-29T20:33:50.043Z,68.07
2018-12-29T20:36:20.600Z,63.23
2018-12-29T20:38:51.003Z,59.80
2018-12-29T20:41:21.761Z,61.30
2018-12-29T20:43:52.073Z,63.03
2018-12-29T20:46:22.372Z,59.37
2018-12-29T20:48:52.759Z,56.80
2018-12-29T20:51:23.025Z,60.60
2018-12-29T20:53:53.687Z,55.60
2018-12-29T20:56:24.109Z,61.23
2018-12-29T20:58:54.880Z,64.90
2018-12-29T21:01:25.744Z,69.03
2018-12-29T21:03:56.185Z,67.17
2018-12-29T21:06:26.731Z,73.33
2018-12-29T21:08:56.940Z,66.00
2018-12-29T21:11:27.329Z,64.60
2018-12-29T21:13:57.671Z,65.40
2018-12-29T21:17:26.318Z,73.93
2018-12-29T21:19:57.357Z,67.93
2018-12-29T21:22:27.596Z,57.77
2018-12-29T21:24:58.077Z,63.03
2018-12-29T21:27:28.357Z,67.07
2018-12-29T21:29:58.788Z,58.37
2018-12-29T21:32:29.928Z,64.43
2018-12-29T21:35:00.245Z,59.73
2018-12-29T21:37:30.544Z,62.53
2018-12-29T21:40:00.922Z,66.57
2018-12-29T21:42:31.124Z,68.27
2018-12-29T21:45:03.890Z,58.03
2018-12-29T21:47:33.815Z,58.43
2018-12-29T21:50:04.248Z,65.87
2018-12-29T21:52:34.435Z,68.97
2018-12-29T21:55:04.882Z,66.40
2018-12-29T21:57:35.264Z,75.67
2018-12-29T22:00:06.449Z,68.47
2018-12-29T22:02:36.705Z,69.80
2018-12-29T22:05:07.157Z,64.57
2018-12-29T22:07:37.620Z,68.33
2018-12-29T22:10:08.624Z,77.70
2018-12-29T22:12:39.347Z,73.90
2018-12-29T22:15:09.737Z,72.57
2018-12-29T22:17:40.243Z,75.23
2018-12-29T22:20:10.804Z,69.70
2018-12-29T22:22:41.072Z,73.10
2018-12-29T22:25:11.378Z,84.63
2018-12-29T22:27:42.119Z,64.17
2018-12-29T22:30:12.713Z,71.37
2018-12-29T22:32:43.308Z,74.33
2018-12-29T22:35:13.934Z,81.20
2018-12-29T22:38:21.221Z,66.77
2018-12-29T22:40:51.388Z,64.73
2018-12-29T22:43:21.605Z,73.53
2018-12-29T22:45:51.950Z,72.53
2018-12-29T22:48:22.173Z,72.57
2018-12-29T22:50:52.732Z,75.33
2018-12-29T22:53:23.250Z,72.80
2018-12-29T22:55:53.668Z,73.60
2018-12-29T22:58:24.620Z,67.97
2018-12-29T23:00:55.200Z,69.13
2018-12-29T23:03:25.604Z,63.10
2018-12-29T23:05:55.850Z,61.17
2018-12-29T23:08:26.452Z,62.47
2018-12-29T23:10:56.960Z,56.43
2018-12-29T23:13:27.339Z,54.10
2018-12-29T23:15:57.592Z,56.20
2018-12-29T23:18:27.778Z,59.67
2018-12-29T23:20:58.107Z,50.33
2018-12-29T23:23:28.859Z,60.03
2018-12-29T23:25:59.426Z,51.73
2018-12-29T23:28:29.657Z,62.47
2018-12-29T23:31:00.581Z,55.70
2018-12-29T23:33:30.927Z,54.80
2018-12-29T23:36:01.174Z,60.03
2018-12-29T23:38:31.330Z,50.47
2018-12-29T23:41:01.646Z,43.47
2018-12-29T23:43:31.824Z,47.33
2018-12-29T23:46:02.080Z,48.50
2018-12-29T23:48:32.371Z,49.93
2018-12-29T23:51:05.602Z,47.80
2018-12-29T23:53:34.988Z,47.70
2018-12-29T23:56:05.818Z,49.20
2018-12-29T23:58:36.056Z,50.20
